sensor_id;sensor_type;location;lat;lon;timestamp;pressure;altitude;pressure_sealevel;temperature
12430;BMP280;6279;42.192;24.326;2023-05-10T00:00:32;99526.72;;;11.24
12430;BMP280;6279;42.192;24.326;2023-05-10T00:02:57;99533.06;;;11.21
12430;BMP280;6279;42.192;24.326;2023-05-10T00:05:23;99527.19;;;11.19
12430;BMP280;6279;42.192;24.326;2023-05-10T00:07:48;99529.47;;;11.15
12430;BMP280;6279;42.192;24.326;2023-05-10T00:10:13;99523.78;;;11.11
12430;BMP280;6279;42.192;24.326;2023-05-10T00:12:39;99530.41;;;11.06
12430;BMP280;6279;42.192;24.326;2023-05-10T00:15:05;99529.59;;;11.05
12430;BMP280;6279;42.192;24.326;2023-05-10T00:17:30;99523.38;;;10.98
12430;BMP280;6279;42.192;24.326;2023-05-10T00:19:56;99526.47;;;10.94
12430;BMP280;6279;42.192;24.326;2023-05-10T00:22:21;99533.31;;;10.95
12430;BMP280;6279;42.192;24.326;2023-05-10T00:24:47;99531.19;;;10.91
12430;BMP280;6279;42.192;24.326;2023-05-10T00:27:12;99531.47;;;10.88
12430;BMP280;6279;42.192;24.326;2023-05-10T00:29:37;99533.78;;;10.91
12430;BMP280;6279;42.192;24.326;2023-05-10T00:32:03;99535.41;;;10.92
12430;BMP280;6279;42.192;24.326;2023-05-10T00:34:29;99533.09;;;10.89
12430;BMP280;6279;42.192;24.326;2023-05-10T00:36:54;99535.84;;;10.87
12430;BMP280;6279;42.192;24.326;2023-05-10T00:39:19;99544.63;;;10.86
12430;BMP280;6279;42.192;24.326;2023-05-10T00:41:45;99535.03;;;10.87
12430;BMP280;6279;42.192;24.326;2023-05-10T00:44:11;99538.94;;;10.83
12430;BMP280;6279;42.192;24.326;2023-05-10T00:46:36;99540.25;;;10.87
12430;BMP280;6279;42.192;24.326;2023-05-10T00:49:01;99529.50;;;10.82
12430;BMP280;6279;42.192;24.326;2023-05-10T00:51:27;99538.94;;;10.83
12430;BMP280;6279;42.192;24.326;2023-05-10T00:53:53;99535.69;;;10.81
12430;BMP280;6279;42.192;24.326;2023-05-10T00:56:19;99530.78;;;10.78
12430;BMP280;6279;42.192;24.326;2023-05-10T00:58:48;99531.69;;;10.69
12430;BMP280;6279;42.192;24.326;2023-05-10T01:01:13;99534.78;;;10.65
12430;BMP280;6279;42.192;24.326;2023-05-10T01:03:39;99533.66;;;10.67
12430;BMP280;6279;42.192;24.326;2023-05-10T01:06:05;99535.59;;;10.65
12430;BMP280;6279;42.192;24.326;2023-05-10T01:08:31;99534.31;;;10.69
12430;BMP280;6279;42.192;24.326;2023-05-10T01:10:57;99536.91;;;10.69
12430;BMP280;6279;42.192;24.326;2023-05-10T01:15:59;99544.03;;;10.59
12430;BMP280;6279;42.192;24.326;2023-05-10T01:18:27;99545.00;;;10.58
12430;BMP280;6279;42.192;24.326;2023-05-10T01:21:27;99550.69;;;10.62
12430;BMP280;6279;42.192;24.326;2023-05-10T01:27:07;99545.00;;;10.58
12430;BMP280;6279;42.192;24.326;2023-05-10T01:35:07;99550.59;;;10.46
12430;BMP280;6279;42.192;24.326;2023-05-10T01:40:31;99557.44;;;10.47
12430;BMP280;6279;42.192;24.326;2023-05-10T01:43:02;99546.94;;;10.56
12430;BMP280;6279;42.192;24.326;2023-05-10T01:45:43;99548.03;;;10.54
12430;BMP280;6279;42.192;24.326;2023-05-10T01:48:14;99544.28;;;10.49
12430;BMP280;6279;42.192;24.326;2023-05-10T01:50:43;99560.53;;;10.51
12430;BMP280;6279;42.192;24.326;2023-05-10T01:53:11;99549.16;;;10.51
12430;BMP280;6279;42.192;24.326;2023-05-10T01:55:51;99557.28;;;10.49
12430;BMP280;6279;42.192;24.326;2023-05-10T01:58:31;99559.53;;;10.44
12430;BMP280;6279;42.192;24.326;2023-05-10T02:01:00;99564.06;;;10.42
12430;BMP280;6279;42.192;24.326;2023-05-10T02:03:27;99563.75;;;10.45
12430;BMP280;6279;42.192;24.326;2023-05-10T02:05:54;99564.25;;;10.48
12430;BMP280;6279;42.192;24.326;2023-05-10T02:08:21;99563.78;;;10.52
12430;BMP280;6279;42.192;24.326;2023-05-10T02:10:49;99573.22;;;10.53
12430;BMP280;6279;42.192;24.326;2023-05-10T02:13:17;99573.22;;;10.53
12430;BMP280;6279;42.192;24.326;2023-05-10T02:15:43;99570.28;;;10.49
12430;BMP280;6279;42.192;24.326;2023-05-10T02:18:13;99570.28;;;10.49
12430;BMP280;6279;42.192;24.326;2023-05-10T02:20:39;99570.28;;;10.49
12430;BMP280;6279;42.192;24.326;2023-05-10T02:23:06;99572.06;;;10.48
12430;BMP280;6279;42.192;24.326;2023-05-10T02:25:33;99572.22;;;10.47
12430;BMP280;6279;42.192;24.326;2023-05-10T02:28:00;99565.47;;;10.36
12430;BMP280;6279;42.192;24.326;2023-05-10T02:30:26;99563.34;;;10.32
12430;BMP280;6279;42.192;24.326;2023-05-10T02:32:53;99570.47;;;10.30
12430;BMP280;6279;42.192;24.326;2023-05-10T02:35:19;99559.47;;;10.36
12430;BMP280;6279;42.192;24.326;2023-05-10T02:37:45;99555.06;;;10.36
12430;BMP280;6279;42.192;24.326;2023-05-10T02:40:12;99561.78;;;10.39
12430;BMP280;6279;42.192;24.326;2023-05-10T02:42:41;99562.28;;;10.42
12430;BMP280;6279;42.192;24.326;2023-05-10T02:45:10;99569.28;;;10.42
12430;BMP280;6279;42.192;24.326;2023-05-10T02:47:36;99560.19;;;10.46
12430;BMP280;6279;42.192;24.326;2023-05-10T02:50:02;99557.81;;;10.35
12430;BMP280;6279;42.192;24.326;2023-05-10T02:52:34;99559.03;;;10.40
12430;BMP280;6279;42.192;24.326;2023-05-10T02:55:04;99558.06;;;10.41
12430;BMP280;6279;42.192;24.326;2023-05-10T02:57:33;99563.09;;;10.43
12430;BMP280;6279;42.192;24.326;2023-05-10T02:59:59;99559.34;;;10.37
12430;BMP280;6279;42.192;24.326;2023-05-10T03:02:26;99558.38;;;10.38
12430;BMP280;6279;42.192;24.326;2023-05-10T03:04:51;99555.88;;;10.37
12430;BMP280;6279;42.192;24.326;2023-05-10T03:07:17;99558.06;;;10.41
12430;BMP280;6279;42.192;24.326;2023-05-10T03:09:46;99563.94;;;10.51
12430;BMP280;6279;42.192;24.326;2023-05-10T03:15:19;99558.44;;;10.54
12430;BMP280;6279;42.192;24.326;2023-05-10T03:17:55;99563.63;;;10.54
12430;BMP280;6279;42.192;24.326;2023-05-10T03:20:28;99557.03;;;10.59
12430;BMP280;6279;42.192;24.326;2023-05-10T03:23:05;99558.00;;;10.58
12430;BMP280;6279;42.192;24.326;2023-05-10T03:25:32;99563.53;;;10.63
12430;BMP280;6279;42.192;24.326;2023-05-10T03:28:00;99562.47;;;10.73
12430;BMP280;6279;42.192;24.326;2023-05-10T03:30:26;99563.56;;;10.71
12430;BMP280;6279;42.192;24.326;2023-05-10T03:32:52;99573.00;;;10.72
12430;BMP280;6279;42.192;24.326;2023-05-10T03:35:17;99566.81;;;10.65
12430;BMP280;6279;42.192;24.326;2023-05-10T03:37:42;99573.09;;;10.55
12430;BMP280;6279;42.192;24.326;2023-05-10T03:40:09;99574.81;;;10.47
12430;BMP280;6279;42.192;24.326;2023-05-10T03:42:35;99568.66;;;10.48
12430;BMP280;6279;42.192;24.326;2023-05-10T03:45:00;99569.66;;;10.54
12430;BMP280;6279;42.192;24.326;2023-05-10T03:47:26;99579.13;;;10.55
12430;BMP280;6279;42.192;24.326;2023-05-10T03:49:51;99575.81;;;10.53
12430;BMP280;6279;42.192;24.326;2023-05-10T03:52:17;99586.28;;;10.61
12430;BMP280;6279;42.192;24.326;2023-05-10T03:54:43;99586.97;;;10.63
12430;BMP280;6279;42.192;24.326;2023-05-10T03:57:08;99589.88;;;10.60
12430;BMP280;6279;42.192;24.326;2023-05-10T03:59:34;99580.75;;;10.56
12430;BMP280;6279;42.192;24.326;2023-05-10T04:02:00;99591.44;;;10.53
12430;BMP280;6279;42.192;24.326;2023-05-10T04:04:25;99584.59;;;10.52
12430;BMP280;6279;42.192;24.326;2023-05-10T04:06:51;99588.47;;;10.49
12430;BMP280;6279;42.192;24.326;2023-05-10T04:09:16;99589.13;;;10.51
12430;BMP280;6279;42.192;24.326;2023-05-10T04:11:42;99589.75;;;10.45
12430;BMP280;6279;42.192;24.326;2023-05-10T04:14:08;99586.81;;;10.40
12430;BMP280;6279;42.192;24.326;2023-05-10T04:16:33;99591.22;;;10.47
12430;BMP280;6279;42.192;24.326;2023-05-10T04:18:59;99591.09;;;10.49
12430;BMP280;6279;42.192;24.326;2023-05-10T04:21:25;99594.84;;;10.54
12430;BMP280;6279;42.192;24.326;2023-05-10T04:23:50;99591.16;;;10.56
12430;BMP280;6279;42.192;24.326;2023-05-10T04:26:16;99594.03;;;10.53
12430;BMP280;6279;42.192;24.326;2023-05-10T04:28:41;99597.41;;;10.46
12430;BMP280;6279;42.192;24.326;2023-05-10T04:31:08;99599.53;;;10.51
12430;BMP280;6279;42.192;24.326;2023-05-10T04:33:34;99596.59;;;10.46
12430;BMP280;6279;42.192;24.326;2023-05-10T04:36:01;99597.06;;;10.41
12430;BMP280;6279;42.192;24.326;2023-05-10T04:38:26;99599.16;;;10.38
12430;BMP280;6279;42.192;24.326;2023-05-10T04:40:52;99593.66;;;10.41
12430;BMP280;6279;42.192;24.326;2023-05-10T04:43:18;99590.28;;;10.48
12430;BMP280;6279;42.192;24.326;2023-05-10T04:45:43;99591.91;;;10.49
12430;BMP280;6279;42.192;24.326;2023-05-10T04:48:09;99587.16;;;10.45
12430;BMP280;6279;42.192;24.326;2023-05-10T04:50:34;99591.19;;;10.64
12430;BMP280;6279;42.192;24.326;2023-05-10T04:53:00;99589.44;;;10.73
12430;BMP280;6279;42.192;24.326;2023-05-10T04:55:25;99589.84;;;10.85
12430;BMP280;6279;42.192;24.326;2023-05-10T04:57:52;99584.03;;;10.91
12430;BMP280;6279;42.192;24.326;2023-05-10T05:00:18;99589.13;;;11.00
12430;BMP280;6279;42.192;24.326;2023-05-10T05:02:44;99578.28;;;10.80
12430;BMP280;6279;42.192;24.326;2023-05-10T05:05:10;99586.00;;;10.97
12430;BMP280;6279;42.192;24.326;2023-05-10T05:07:36;99584.09;;;11.07
12430;BMP280;6279;42.192;24.326;2023-05-10T05:10:09;99589.81;;;11.10
12430;BMP280;6279;42.192;24.326;2023-05-10T05:12:35;99592.69;;;10.99
12430;BMP280;6279;42.192;24.326;2023-05-10T05:15:01;99593.91;;;10.88
12430;BMP280;6279;42.192;24.326;2023-05-10T05:17:26;99590.47;;;10.79
12430;BMP280;6279;42.192;24.326;2023-05-10T05:19:52;99591.94;;;10.82
12430;BMP280;6279;42.192;24.326;2023-05-10T05:22:17;99585.84;;;10.98
12430;BMP280;6279;42.192;24.326;2023-05-10T05:24:44;99582.59;;;10.96
12430;BMP280;6279;42.192;24.326;2023-05-10T05:27:10;99595.31;;;11.07
12430;BMP280;6279;42.192;24.326;2023-05-10T05:29:35;99595.13;;;11.01
12430;BMP280;6279;42.192;24.326;2023-05-10T05:32:01;99588.03;;;11.11
12430;BMP280;6279;42.192;24.326;2023-05-10T05:34:28;99589.50;;;11.13
12430;BMP280;6279;42.192;24.326;2023-05-10T05:36:54;99604.25;;;11.38
12430;BMP280;6279;42.192;24.326;2023-05-10T05:39:19;99594.66;;;11.38
12430;BMP280;6279;42.192;24.326;2023-05-10T05:41:44;99602.03;;;11.58
12430;BMP280;6279;42.192;24.326;2023-05-10T05:44:11;99599.81;;;11.79
12430;BMP280;6279;42.192;24.326;2023-05-10T05:46:36;99593.31;;;11.83
12430;BMP280;6279;42.192;24.326;2023-05-10T05:49:02;99604.59;;;11.99
12430;BMP280;6279;42.192;24.326;2023-05-10T05:51:30;99608.31;;;12.04
12430;BMP280;6279;42.192;24.326;2023-05-10T05:53:56;99610.44;;;12.01
12430;BMP280;6279;42.192;24.326;2023-05-10T05:56:21;99608.31;;;11.96
12430;BMP280;6279;42.192;24.326;2023-05-10T05:58:52;99613.53;;;11.81
12430;BMP280;6279;42.192;24.326;2023-05-10T06:01:20;99613.53;;;11.88
12430;BMP280;6279;42.192;24.326;2023-05-10T06:03:46;99608.97;;;11.98
12430;BMP280;6279;42.192;24.326;2023-05-10T06:06:11;99609.31;;;12.03
12430;BMP280;6279;42.192;24.326;2023-05-10T06:08:37;99611.72;;;11.97
12430;BMP280;6279;42.192;24.326;2023-05-10T06:11:03;99610.94;;;12.12
12430;BMP280;6279;42.192;24.326;2023-05-10T06:13:29;99611.28;;;12.17
12430;BMP280;6279;42.192;24.326;2023-05-10T06:16:00;99611.91;;;12.11
12430;BMP280;6279;42.192;24.326;2023-05-10T06:18:26;99612.56;;;12.05
12430;BMP280;6279;42.192;24.326;2023-05-10T06:20:51;99600.19;;;12.23
12430;BMP280;6279;42.192;24.326;2023-05-10T06:23:17;99603.13;;;12.27
12430;BMP280;6279;42.192;24.326;2023-05-10T06:25:42;99615.50;;;12.26
12430;BMP280;6279;42.192;24.326;2023-05-10T06:28:08;99618.09;;;12.02
12430;BMP280;6279;42.192;24.326;2023-05-10T06:30:35;99625.09;;;12.09
12430;BMP280;6279;42.192;24.326;2023-05-10T06:33:01;99620.56;;;12.04
12430;BMP280;6279;42.192;24.326;2023-05-10T06:35:26;99628.88;;;12.23
12430;BMP280;6279;42.192;24.326;2023-05-10T06:37:51;99618.63;;;12.37
12430;BMP280;6279;42.192;24.326;2023-05-10T06:40:17;99617.28;;;12.48
12430;BMP280;6279;42.192;24.326;2023-05-10T06:42:43;99616.47;;;12.64
12430;BMP280;6279;42.192;24.326;2023-05-10T06:45:10;99619.56;;;12.67
12430;BMP280;6279;42.192;24.326;2023-05-10T06:47:35;99614.66;;;12.88
12430;BMP280;6279;42.192;24.326;2023-05-10T06:50:01;99613.66;;;12.96
12430;BMP280;6279;42.192;24.326;2023-05-10T06:52:26;99625.41;;;12.85
12430;BMP280;6279;42.192;24.326;2023-05-10T06:54:52;99609.63;;;12.78
12430;BMP280;6279;42.192;24.326;2023-05-10T06:57:17;99613.31;;;13.07
12430;BMP280;6279;42.192;24.326;2023-05-10T06:59:43;99614.84;;;13.32
12430;BMP280;6279;42.192;24.326;2023-05-10T07:02:08;99613.34;;;13.37
12430;BMP280;6279;42.192;24.326;2023-05-10T07:04:34;99608.50;;;13.18
12430;BMP280;6279;42.192;24.326;2023-05-10T07:06:59;99607.75;;;13.02
12430;BMP280;6279;42.192;24.326;2023-05-10T07:09:24;99613.41;;;13.21
12430;BMP280;6279;42.192;24.326;2023-05-10T07:11:50;99611.63;;;13.52
12430;BMP280;6279;42.192;24.326;2023-05-10T07:14:15;99604.59;;;13.90
12430;BMP280;6279;42.192;24.326;2023-05-10T07:16:40;99609.25;;;14.02
12430;BMP280;6279;42.192;24.326;2023-05-10T07:19:06;99602.91;;;14.19
12430;BMP280;6279;42.192;24.326;2023-05-10T07:21:32;99602.25;;;14.39
12430;BMP280;6279;42.192;24.326;2023-05-10T07:23:57;99610.19;;;14.67
12430;BMP280;6279;42.192;24.326;2023-05-10T07:26:23;99610.28;;;14.73
12430;BMP280;6279;42.192;24.326;2023-05-10T07:28:49;99613.53;;;14.90
12430;BMP280;6279;42.192;24.326;2023-05-10T07:31:14;99604.97;;;14.95
12430;BMP280;6279;42.192;24.326;2023-05-10T07:33:40;99620.78;;;14.51
12430;BMP280;6279;42.192;24.326;2023-05-10T07:36:05;99615.72;;;14.14
12430;BMP280;6279;42.192;24.326;2023-05-10T07:38:31;99621.69;;;14.22
12430;BMP280;6279;42.192;24.326;2023-05-10T07:40:56;99617.13;;;14.38
12430;BMP280;6279;42.192;24.326;2023-05-10T07:43:21;99619.41;;;14.19
12430;BMP280;6279;42.192;24.326;2023-05-10T07:45:47;99626.19;;;14.28
12430;BMP280;6279;42.192;24.326;2023-05-10T07:48:12;99631.31;;;14.44
12430;BMP280;6279;42.192;24.326;2023-05-10T07:50:38;99622.28;;;14.32
12430;BMP280;6279;42.192;24.326;2023-05-10T07:53:03;99631.94;;;14.31
12430;BMP280;6279;42.192;24.326;2023-05-10T07:55:28;99629.19;;;14.03
12430;BMP280;6279;42.192;24.326;2023-05-10T07:57:54;99625.16;;;13.93
12430;BMP280;6279;42.192;24.326;2023-05-10T08:00:20;99629.13;;;13.81
12430;BMP280;6279;42.192;24.326;2023-05-10T08:02:46;99631.53;;;13.60
12430;BMP280;6279;42.192;24.326;2023-05-10T08:05:11;99636.72;;;13.68
12430;BMP280;6279;42.192;24.326;2023-05-10T08:07:37;99627.56;;;14.02
12430;BMP280;6279;42.192;24.326;2023-05-10T08:10:03;99644.63;;;13.90
12430;BMP280;6279;42.192;24.326;2023-05-10T08:12:28;99636.38;;;14.01
12430;BMP280;6279;42.192;24.326;2023-05-10T08:14:53;99636.16;;;14.32
12430;BMP280;6279;42.192;24.326;2023-05-10T08:17:19;99641.38;;;14.54
12430;BMP280;6279;42.192;24.326;2023-05-10T08:19:44;99621.56;;;14.38
12430;BMP280;6279;42.192;24.326;2023-05-10T08:22:10;99618.31;;;14.72
12430;BMP280;6279;42.192;24.326;2023-05-10T08:24:35;99626.53;;;14.83
12430;BMP280;6279;42.192;24.326;2023-05-10T08:27:07;99635.78;;;14.57
12430;BMP280;6279;42.192;24.326;2023-05-10T08:29:32;99640.13;;;14.50
12430;BMP280;6279;42.192;24.326;2023-05-10T08:31:58;99630.41;;;14.73
12430;BMP280;6279;42.192;24.326;2023-05-10T08:34:23;99630.84;;;14.76
12430;BMP280;6279;42.192;24.326;2023-05-10T08:36:48;99632.59;;;14.98
12430;BMP280;6279;42.192;24.326;2023-05-10T08:39:14;99642.91;;;14.63
12430;BMP280;6279;42.192;24.326;2023-05-10T08:41:39;99642.09;;;14.48
12430;BMP280;6279;42.192;24.326;2023-05-10T08:44:08;99632.25;;;14.65
12430;BMP280;6279;42.192;24.326;2023-05-10T08:46:33;99622.47;;;14.81
12430;BMP280;6279;42.192;24.326;2023-05-10T08:49:06;99620.09;;;15.08
12430;BMP280;6279;42.192;24.326;2023-05-10T08:51:36;99624.16;;;15.38
12430;BMP280;6279;42.192;24.326;2023-05-10T08:54:03;99628.84;;;15.57
12430;BMP280;6279;42.192;24.326;2023-05-10T08:56:29;99623.13;;;15.54
12430;BMP280;6279;42.192;24.326;2023-05-10T08:58:57;99635.53;;;15.31
12430;BMP280;6279;42.192;24.326;2023-05-10T09:01:23;99627.03;;;15.29
12430;BMP280;6279;42.192;24.326;2023-05-10T09:03:50;99616.91;;;15.12
12430;BMP280;6279;42.192;24.326;2023-05-10T09:06:15;99619.81;;;15.45
12430;BMP280;6279;42.192;24.326;2023-05-10T09:08:41;99614.84;;;15.71
12430;BMP280;6279;42.192;24.326;2023-05-10T09:11:08;99613.63;;;16.43
12430;BMP280;6279;42.192;24.326;2023-05-10T09:13:35;99613.44;;;16.98
12430;BMP280;6279;42.192;24.326;2023-05-10T09:16:02;99613.53;;;17.90
12430;BMP280;6279;42.192;24.326;2023-05-10T09:18:27;99614.03;;;18.06
12430;BMP280;6279;42.192;24.326;2023-05-10T09:20:53;99608.78;;;17.20
12430;BMP280;6279;42.192;24.326;2023-05-10T09:23:19;99612.25;;;17.27
12430;BMP280;6279;42.192;24.326;2023-05-10T09:25:45;99609.84;;;16.45
12430;BMP280;6279;42.192;24.326;2023-05-10T09:28:11;99611.09;;;15.94
12430;BMP280;6279;42.192;24.326;2023-05-10T09:30:37;99615.59;;;15.79
12430;BMP280;6279;42.192;24.326;2023-05-10T09:33:02;99608.44;;;15.73
12430;BMP280;6279;42.192;24.326;2023-05-10T09:35:31;99610.88;;;15.40
12430;BMP280;6279;42.192;24.326;2023-05-10T09:38:02;99605.00;;;15.24
12430;BMP280;6279;42.192;24.326;2023-05-10T09:40:29;99600.91;;;15.35
12430;BMP280;6279;42.192;24.326;2023-05-10T09:45:22;99585.56;;;15.18
12430;BMP280;6279;42.192;24.326;2023-05-10T09:47:47;99593.66;;;14.95
12430;BMP280;6279;42.192;24.326;2023-05-10T09:50:13;99589.22;;;15.03
12430;BMP280;6279;42.192;24.326;2023-05-10T09:55:15;99589.53;;;15.14
12430;BMP280;6279;42.192;24.326;2023-05-10T09:57:40;99599.47;;;15.33
12430;BMP280;6279;42.192;24.326;2023-05-10T10:00:07;99591.22;;;14.93
12430;BMP280;6279;42.192;24.326;2023-05-10T10:02:32;99590.19;;;15.02
12430;BMP280;6279;42.192;24.326;2023-05-10T10:05:00;99589.81;;;15.19
12430;BMP280;6279;42.192;24.326;2023-05-10T10:07:26;99597.06;;;15.03
12430;BMP280;6279;42.192;24.326;2023-05-10T10:09:53;99598.47;;;14.91
12430;BMP280;6279;42.192;24.326;2023-05-10T10:12:18;99586.38;;;15.19
12430;BMP280;6279;42.192;24.326;2023-05-10T10:14:46;99584.41;;;15.21
12430;BMP280;6279;42.192;24.326;2023-05-10T10:17:12;99589.44;;;15.36
12430;BMP280;6279;42.192;24.326;2023-05-10T10:19:38;99596.22;;;15.45
12430;BMP280;6279;42.192;24.326;2023-05-10T10:22:04;99585.72;;;15.45
12430;BMP280;6279;42.192;24.326;2023-05-10T10:24:30;99582.72;;;15.83
12430;BMP280;6279;42.192;24.326;2023-05-10T10:26:59;99578.28;;;15.83
12430;BMP280;6279;42.192;24.326;2023-05-10T10:29:49;99569.00;;;16.01
12430;BMP280;6279;42.192;24.326;2023-05-10T10:34:46;99579.69;;;16.00
12430;BMP280;6279;42.192;24.326;2023-05-10T10:37:11;99571.91;;;16.06
12430;BMP280;6279;42.192;24.326;2023-05-10T10:39:37;99573.38;;;15.74
12430;BMP280;6279;42.192;24.326;2023-05-10T10:42:02;99568.47;;;16.06
12430;BMP280;6279;42.192;24.326;2023-05-10T10:49:26;99568.50;;;17.13
12430;BMP280;6279;42.192;24.326;2023-05-10T10:52:22;99555.63;;;17.25
12430;BMP280;6279;42.192;24.326;2023-05-10T10:55:12;99558.53;;;17.42
12430;BMP280;6279;42.192;24.326;2023-05-10T11:10:21;99562.03;;;16.56
12430;BMP280;6279;42.192;24.326;2023-05-10T11:13:00;99558.88;;;16.67
12430;BMP280;6279;42.192;24.326;2023-05-10T11:15:36;99563.25;;;16.60
12430;BMP280;6279;42.192;24.326;2023-05-10T11:18:23;99557.88;;;16.41
12430;BMP280;6279;42.192;24.326;2023-05-10T11:20:56;99559.44;;;16.35
12430;BMP280;6279;42.192;24.326;2023-05-10T11:23:21;99556.16;;;16.27
12430;BMP280;6279;42.192;24.326;2023-05-10T11:25:48;99546.13;;;16.10
12430;BMP280;6279;42.192;24.326;2023-05-10T11:28:14;99555.69;;;16.23
12430;BMP280;6279;42.192;24.326;2023-05-10T11:30:41;99550.91;;;16.06
12430;BMP280;6279;42.192;24.326;2023-05-10T11:33:08;99553.06;;;16.23
12430;BMP280;6279;42.192;24.326;2023-05-10T11:35:40;99545.91;;;16.32
12430;BMP280;6279;42.192;24.326;2023-05-10T11:38:13;99545.16;;;16.44
12430;BMP280;6279;42.192;24.326;2023-05-10T11:40:41;99542.94;;;16.41
12430;BMP280;6279;42.192;24.326;2023-05-10T11:43:08;99549.28;;;16.53
12430;BMP280;6279;42.192;24.326;2023-05-10T11:45:34;99537.81;;;16.33
12430;BMP280;6279;42.192;24.326;2023-05-10T11:48:00;99540.22;;;16.28
12430;BMP280;6279;42.192;24.326;2023-05-10T11:50:27;99547.63;;;16.25
12430;BMP280;6279;42.192;24.326;2023-05-10T11:52:53;99543.66;;;16.29
12430;BMP280;6279;42.192;24.326;2023-05-10T11:55:19;99543.28;;;16.32
12430;BMP280;6279;42.192;24.326;2023-05-10T11:57:44;99538.97;;;16.04
12430;BMP280;6279;42.192;24.326;2023-05-10T12:00:12;99529.22;;;15.78
12430;BMP280;6279;42.192;24.326;2023-05-10T12:02:37;99538.09;;;15.77
12430;BMP280;6279;42.192;24.326;2023-05-10T12:05:04;99534.56;;;15.70
12430;BMP280;6279;42.192;24.326;2023-05-10T12:07:30;99524.41;;;15.60
12430;BMP280;6279;42.192;24.326;2023-05-10T12:10:12;99526.44;;;15.65
12430;BMP280;6279;42.192;24.326;2023-05-10T12:12:44;99526.47;;;15.85
12430;BMP280;6279;42.192;24.326;2023-05-10T12:15:21;99525.03;;;15.83
12430;BMP280;6279;42.192;24.326;2023-05-10T12:17:47;99518.09;;;15.76
12430;BMP280;6279;42.192;24.326;2023-05-10T12:20:23;99513.34;;;15.85
12430;BMP280;6279;42.192;24.326;2023-05-10T12:22:51;99514.72;;;15.81
12430;BMP280;6279;42.192;24.326;2023-05-10T12:25:21;99516.78;;;16.06
12430;BMP280;6279;42.192;24.326;2023-05-10T12:27:52;99515.31;;;16.24
12430;BMP280;6279;42.192;24.326;2023-05-10T12:30:26;99516.56;;;16.55
12430;BMP280;6279;42.192;24.326;2023-05-10T12:32:52;99510.84;;;16.72
12430;BMP280;6279;42.192;24.326;2023-05-10T12:35:18;99508.81;;;16.74
12430;BMP280;6279;42.192;24.326;2023-05-10T12:37:47;99506.28;;;16.87
12430;BMP280;6279;42.192;24.326;2023-05-10T12:40:12;99507.91;;;16.94
12430;BMP280;6279;42.192;24.326;2023-05-10T12:42:38;99489.94;;;16.98
12430;BMP280;6279;42.192;24.326;2023-05-10T12:45:06;99497.72;;;17.06
12430;BMP280;6279;42.192;24.326;2023-05-10T12:47:32;99488.88;;;17.19
12430;BMP280;6279;42.192;24.326;2023-05-10T12:49:58;99486.88;;;16.55
12430;BMP280;6279;42.192;24.326;2023-05-10T12:52:25;99482.84;;;16.52
12430;BMP280;6279;42.192;24.326;2023-05-10T12:54:51;99474.56;;;16.55
12430;BMP280;6279;42.192;24.326;2023-05-10T12:57:17;99474.25;;;16.71
12430;BMP280;6279;42.192;24.326;2023-05-10T12:59:45;99472.03;;;17.08
12430;BMP280;6279;42.192;24.326;2023-05-10T13:02:10;99473.91;;;17.26
12430;BMP280;6279;42.192;24.326;2023-05-10T13:04:36;99470.72;;;16.91
12430;BMP280;6279;42.192;24.326;2023-05-10T13:07:05;99466.19;;;16.79
12430;BMP280;6279;42.192;24.326;2023-05-10T13:09:31;99464.69;;;16.57
12430;BMP280;6279;42.192;24.326;2023-05-10T13:11:56;99466.63;;;16.16
12430;BMP280;6279;42.192;24.326;2023-05-10T13:14:21;99465.69;;;15.82
12430;BMP280;6279;42.192;24.326;2023-05-10T13:16:47;99464.38;;;15.72
12430;BMP280;6279;42.192;24.326;2023-05-10T13:19:13;99463.66;;;15.78
12430;BMP280;6279;42.192;24.326;2023-05-10T13:21:39;99455.25;;;16.09
12430;BMP280;6279;42.192;24.326;2023-05-10T13:24:06;99452.00;;;16.34
12430;BMP280;6279;42.192;24.326;2023-05-10T13:26:32;99449.69;;;16.51
12430;BMP280;6279;42.192;24.326;2023-05-10T13:28:57;99443.63;;;16.84
12430;BMP280;6279;42.192;24.326;2023-05-10T13:31:23;99448.38;;;17.08
12430;BMP280;6279;42.192;24.326;2023-05-10T13:33:48;99448.84;;;17.17
12430;BMP280;6279;42.192;24.326;2023-05-10T13:36:13;99451.06;;;17.20
12430;BMP280;6279;42.192;24.326;2023-05-10T13:38:39;99433.06;;;17.30
12430;BMP280;6279;42.192;24.326;2023-05-10T13:41:04;99442.38;;;17.33
12430;BMP280;6279;42.192;24.326;2023-05-10T13:43:30;99452.88;;;17.26
12430;BMP280;6279;42.192;24.326;2023-05-10T13:45:55;99450.09;;;16.94
12430;BMP280;6279;42.192;24.326;2023-05-10T13:48:21;99443.94;;;16.68
12430;BMP280;6279;42.192;24.326;2023-05-10T13:50:46;99439.03;;;16.59
12430;BMP280;6279;42.192;24.326;2023-05-10T13:53:12;99446.19;;;16.78
12430;BMP280;6279;42.192;24.326;2023-05-10T13:55:38;99433.72;;;16.92
12430;BMP280;6279;42.192;24.326;2023-05-10T13:58:03;99439.28;;;17.10
12430;BMP280;6279;42.192;24.326;2023-05-10T14:00:29;99426.53;;;17.01
12430;BMP280;6279;42.192;24.326;2023-05-10T14:02:54;99424.13;;;17.06
12430;BMP280;6279;42.192;24.326;2023-05-10T14:05:20;99420.94;;;17.16
12430;BMP280;6279;42.192;24.326;2023-05-10T14:07:45;99420.13;;;17.29
12430;BMP280;6279;42.192;24.326;2023-05-10T14:10:11;99412.06;;;17.49
12430;BMP280;6279;42.192;24.326;2023-05-10T14:12:36;99415.34;;;17.64
12430;BMP280;6279;42.192;24.326;2023-05-10T14:15:03;99415.13;;;17.65
12430;BMP280;6279;42.192;24.326;2023-05-10T14:17:31;99416.13;;;17.39
12430;BMP280;6279;42.192;24.326;2023-05-10T14:19:56;99414.50;;;17.44
12430;BMP280;6279;42.192;24.326;2023-05-10T14:22:22;99412.03;;;17.17
12430;BMP280;6279;42.192;24.326;2023-05-10T14:24:48;99407.59;;;17.18
12430;BMP280;6279;42.192;24.326;2023-05-10T14:27:13;99408.00;;;17.21
12430;BMP280;6279;42.192;24.326;2023-05-10T14:29:39;99407.34;;;17.13
12430;BMP280;6279;42.192;24.326;2023-05-10T14:32:04;99411.09;;;16.98
12430;BMP280;6279;42.192;24.326;2023-05-10T14:34:30;99413.84;;;16.71
12430;BMP280;6279;42.192;24.326;2023-05-10T14:36:55;99413.47;;;16.80
12430;BMP280;6279;42.192;24.326;2023-05-10T14:39:21;99416.44;;;17.04
12430;BMP280;6279;42.192;24.326;2023-05-10T14:41:46;99409.16;;;17.00
12430;BMP280;6279;42.192;24.326;2023-05-10T14:44:12;99413.47;;;16.80
12430;BMP280;6279;42.192;24.326;2023-05-10T14:46:38;99416.19;;;16.53
12430;BMP280;6279;42.192;24.326;2023-05-10T14:49:04;99414.03;;;16.69